sensor_id;sensor_type;location;lat;lon;timestamp;P1;durP1;ratioP1;P2;durP2;ratioP2
77705;SDS011;66874;45.274;5.880;2023-08-01T00:01:02;4.30;;;2.10;;
77705;SDS011;66874;45.274;5.880;2023-08-01T00:03:28;16.80;;;2.65;;
77705;SDS011;66874;45.274;5.880;2023-08-01T00:05:53;3.05;;;2.08;;
77705;SDS011;66874;45.274;5.880;2023-08-01T00:08:20;5.43;;;2.78;;
77705;SDS011;66874;45.274;5.880;2023-08-01T00:10:46;5.40;;;2.20;;
77705;SDS011;66874;45.274;5.880;2023-08-01T00:13:11;5.15;;;1.95;;
77705;SDS011;66874;45.274;5.880;2023-08-01T00:15:37;3.13;;;1.98;;
77705;SDS011;66874;45.274;5.880;2023-08-01T00:18:02;5.43;;;2.17;;
77705;SDS011;66874;45.274;5.880;2023-08-01T00:20:27;8.57;;;2.45;;
77705;SDS011;66874;45.274;5.880;2023-08-01T00:22:53;2.70;;;2.25;;
77705;SDS011;66874;45.274;5.880;2023-08-01T00:25:18;4.20;;;2.38;;
77705;SDS011;66874;45.274;5.880;2023-08-01T00:27:44;4.68;;;1.95;;
77705;SDS011;66874;45.274;5.880;2023-08-01T00:30:09;4.55;;;1.95;;
77705;SDS011;66874;45.274;5.880;2023-08-01T00:32:35;3.35;;;2.13;;
77705;SDS011;66874;45.274;5.880;2023-08-01T00:35:01;8.10;;;2.25;;
77705;SDS011;66874;45.274;5.880;2023-08-01T00:37:27;6.28;;;2.17;;
77705;SDS011;66874;45.274;5.880;2023-08-01T00:39:52;8.80;;;2.60;;
77705;SDS011;66874;45.274;5.880;2023-08-01T00:42:18;5.25;;;2.10;;
77705;SDS011;66874;45.274;5.880;2023-08-01T00:44:43;4.20;;;2.60;;
77705;SDS011;66874;45.274;5.880;2023-08-01T00:47:08;3.28;;;2.10;;
77705;SDS011;66874;45.274;5.880;2023-08-01T00:49:35;3.03;;;2.40;;
77705;SDS011;66874;45.274;5.880;2023-08-01T00:52:01;5.07;;;2.50;;
77705;SDS011;66874;45.274;5.880;2023-08-01T00:54:27;6.00;;;2.50;;
77705;SDS011;66874;45.274;5.880;2023-08-01T00:56:52;6.22;;;2.50;;
77705;SDS011;66874;45.274;5.880;2023-08-01T00:59:18;4.57;;;2.25;;
77705;SDS011;66874;45.274;5.880;2023-08-01T01:01:43;3.38;;;2.00;;
77705;SDS011;66874;45.274;5.880;2023-08-01T01:04:08;4.35;;;2.17;;
77705;SDS011;66874;45.274;5.880;2023-08-01T01:06:37;11.45;;;2.50;;
77705;SDS011;66874;45.274;5.880;2023-08-01T01:09:15;6.15;;;2.65;;
77705;SDS011;66874;45.274;5.880;2023-08-01T01:11:42;4.45;;;2.85;;
77705;SDS011;66874;45.274;5.880;2023-08-01T01:14:08;4.95;;;2.60;;
77705;SDS011;66874;45.274;5.880;2023-08-01T01:16:33;6.75;;;2.72;;
77705;SDS011;66874;45.274;5.880;2023-08-01T01:18:58;3.47;;;2.28;;
77705;SDS011;66874;45.274;5.880;2023-08-01T01:21:24;4.28;;;2.38;;
77705;SDS011;66874;45.274;5.880;2023-08-01T01:23:50;4.20;;;2.50;;
77705;SDS011;66874;45.274;5.880;2023-08-01T01:26:16;4.55;;;2.72;;
77705;SDS011;66874;45.274;5.880;2023-08-01T01:28:47;7.25;;;2.92;;
77705;SDS011;66874;45.274;5.880;2023-08-01T01:31:14;5.30;;;2.40;;
77705;SDS011;66874;45.274;5.880;2023-08-01T01:33:40;4.10;;;2.60;;
77705;SDS011;66874;45.274;5.880;2023-08-01T01:36:06;3.17;;;2.35;;
77705;SDS011;66874;45.274;5.880;2023-08-01T01:38:32;10.50;;;2.67;;
77705;SDS011;66874;45.274;5.880;2023-08-01T01:40:57;4.35;;;2.50;;
77705;SDS011;66874;45.274;5.880;2023-08-01T01:43:23;6.35;;;2.78;;
77705;SDS011;66874;45.274;5.880;2023-08-01T01:45:48;3.70;;;2.28;;
77705;SDS011;66874;45.274;5.880;2023-08-01T01:48:13;6.80;;;2.72;;
77705;SDS011;66874;45.274;5.880;2023-08-01T01:50:39;4.63;;;2.75;;
77705;SDS011;66874;45.274;5.880;2023-08-01T01:53:04;4.22;;;2.53;;
77705;SDS011;66874;45.274;5.880;2023-08-01T01:55:29;3.45;;;2.30;;
77705;SDS011;66874;45.274;5.880;2023-08-01T01:57:55;7.15;;;2.75;;
77705;SDS011;66874;45.274;5.880;2023-08-01T02:00:20;5.45;;;2.42;;
77705;SDS011;66874;45.274;5.880;2023-08-01T02:02:45;2.38;;;2.13;;
77705;SDS011;66874;45.274;5.880;2023-08-01T02:05:11;5.00;;;2.45;;
77705;SDS011;66874;45.274;5.880;2023-08-01T02:07:36;6.80;;;3.15;;
77705;SDS011;66874;45.274;5.880;2023-08-01T02:10:02;4.55;;;2.17;;
77705;SDS011;66874;45.274;5.880;2023-08-01T02:12:27;5.70;;;2.20;;
77705;SDS011;66874;45.274;5.880;2023-08-01T02:14:56;5.72;;;2.15;;
77705;SDS011;66874;45.274;5.880;2023-08-01T02:17:22;5.13;;;2.80;;
77705;SDS011;66874;45.274;5.880;2023-08-01T02:19:47;5.88;;;2.63;;
77705;SDS011;66874;45.274;5.880;2023-08-01T02:22:13;6.60;;;2.83;;
77705;SDS011;66874;45.274;5.880;2023-08-01T02:24:38;3.17;;;2.42;;
77705;SDS011;66874;45.274;5.880;2023-08-01T02:27:04;4.72;;;2.72;;
77705;SDS011;66874;45.274;5.880;2023-08-01T02:29:29;5.20;;;2.70;;
77705;SDS011;66874;45.274;5.880;2023-08-01T02:31:55;7.22;;;2.78;;
77705;SDS011;66874;45.274;5.880;2023-08-01T02:34:21;5.88;;;2.65;;
77705;SDS011;66874;45.274;5.880;2023-08-01T02:36:46;6.25;;;2.63;;
77705;SDS011;66874;45.274;5.880;2023-08-01T02:39:12;5.20;;;2.50;;
77705;SDS011;66874;45.274;5.880;2023-08-01T02:41:37;6.32;;;2.55;;
77705;SDS011;66874;45.274;5.880;2023-08-01T02:44:02;4.72;;;2.50;;
77705;SDS011;66874;45.274;5.880;2023-08-01T02:46:28;4.90;;;2.70;;
77705;SDS011;66874;45.274;5.880;2023-08-01T02:48:54;5.30;;;2.70;;
77705;SDS011;66874;45.274;5.880;2023-08-01T02:51:20;7.63;;;3.58;;
77705;SDS011;66874;45.274;5.880;2023-08-01T02:53:45;5.30;;;2.47;;
77705;SDS011;66874;45.274;5.880;2023-08-01T02:56:11;4.40;;;2.53;;
77705;SDS011;66874;45.274;5.880;2023-08-01T02:58:36;4.53;;;2.83;;
77705;SDS011;66874;45.274;5.880;2023-08-01T03:01:05;3.63;;;2.78;;
77705;SDS011;66874;45.274;5.880;2023-08-01T03:03:33;4.53;;;2.67;;
77705;SDS011;66874;45.274;5.880;2023-08-01T03:06:00;4.28;;;2.70;;
77705;SDS011;66874;45.274;5.880;2023-08-01T03:08:26;4.85;;;2.63;;
77705;SDS011;66874;45.274;5.880;2023-08-01T03:10:53;13.45;;;2.80;;
77705;SDS011;66874;45.274;5.880;2023-08-01T03:15:45;6.53;;;2.95;;
77705;SDS011;66874;45.274;5.880;2023-08-01T03:18:10;4.18;;;2.60;;
77705;SDS011;66874;45.274;5.880;2023-08-01T03:20:36;8.90;;;2.92;;
77705;SDS011;66874;45.274;5.880;2023-08-01T03:23:01;4.50;;;2.53;;
77705;SDS011;66874;45.274;5.880;2023-08-01T03:25:27;5.22;;;2.58;;
77705;SDS011;66874;45.274;5.880;2023-08-01T03:27:52;4.15;;;2.85;;
77705;SDS011;66874;45.274;5.880;2023-08-01T03:30:19;6.70;;;3.28;;
77705;SDS011;66874;45.274;5.880;2023-08-01T03:32:45;5.15;;;2.67;;
77705;SDS011;66874;45.274;5.880;2023-08-01T03:35:11;4.85;;;3.05;;
77705;SDS011;66874;45.274;5.880;2023-08-01T03:37:39;5.68;;;3.00;;
77705;SDS011;66874;45.274;5.880;2023-08-01T03:40:05;5.63;;;3.20;;
77705;SDS011;66874;45.274;5.880;2023-08-01T03:42:33;6.32;;;3.42;;
77705;SDS011;66874;45.274;5.880;2023-08-01T03:44:59;4.35;;;3.03;;
77705;SDS011;66874;45.274;5.880;2023-08-01T03:47:24;5.25;;;2.90;;
77705;SDS011;66874;45.274;5.880;2023-08-01T03:49:50;6.53;;;3.58;;
77705;SDS011;66874;45.274;5.880;2023-08-01T03:52:15;4.68;;;2.85;;
77705;SDS011;66874;45.274;5.880;2023-08-01T03:54:40;5.68;;;3.30;;
77705;SDS011;66874;45.274;5.880;2023-08-01T03:57:06;8.30;;;2.70;;
77705;SDS011;66874;45.274;5.880;2023-08-01T03:59:31;5.53;;;3.05;;
77705;SDS011;66874;45.274;5.880;2023-08-01T04:01:57;6.55;;;2.78;;
77705;SDS011;66874;45.274;5.880;2023-08-01T04:04:22;7.40;;;2.85;;
77705;SDS011;66874;45.274;5.880;2023-08-01T04:06:48;8.20;;;3.15;;
77705;SDS011;66874;45.274;5.880;2023-08-01T04:09:13;6.63;;;2.40;;
77705;SDS011;66874;45.274;5.880;2023-08-01T04:11:39;4.32;;;2.60;;
77705;SDS011;66874;45.274;5.880;2023-08-01T04:14:04;5.72;;;3.38;;
77705;SDS011;66874;45.274;5.880;2023-08-01T04:16:29;6.68;;;3.17;;
77705;SDS011;66874;45.274;5.880;2023-08-01T04:18:55;5.20;;;2.70;;
77705;SDS011;66874;45.274;5.880;2023-08-01T04:21:20;12.30;;;3.17;;
77705;SDS011;66874;45.274;5.880;2023-08-01T04:23:46;5.00;;;2.97;;
77705;SDS011;66874;45.274;5.880;2023-08-01T04:26:11;6.00;;;2.83;;
77705;SDS011;66874;45.274;5.880;2023-08-01T04:28:37;8.82;;;3.10;;
77705;SDS011;66874;45.274;5.880;2023-08-01T04:31:03;4.75;;;2.25;;
77705;SDS011;66874;45.274;5.880;2023-08-01T04:33:28;4.40;;;2.33;;
77705;SDS011;66874;45.274;5.880;2023-08-01T04:35:54;5.28;;;2.25;;
77705;SDS011;66874;45.274;5.880;2023-08-01T04:38:19;5.22;;;2.90;;
77705;SDS011;66874;45.274;5.880;2023-08-01T04:40:45;4.38;;;2.92;;
77705;SDS011;66874;45.274;5.880;2023-08-01T04:43:11;8.25;;;2.95;;
77705;SDS011;66874;45.274;5.880;2023-08-01T04:45:37;4.45;;;3.05;;
77705;SDS011;66874;45.274;5.880;2023-08-01T04:48:02;4.18;;;2.45;;
77705;SDS011;66874;45.274;5.880;2023-08-01T04:50:28;4.05;;;2.72;;
77705;SDS011;66874;45.274;5.880;2023-08-01T04:52:53;4.05;;;2.70;;
77705;SDS011;66874;45.274;5.880;2023-08-01T04:55:19;5.47;;;2.80;;
77705;SDS011;66874;45.274;5.880;2023-08-01T04:57:44;57.80;;;10.65;;
77705;SDS011;66874;45.274;5.880;2023-08-01T05:00:10;31.15;;;7.20;;
77705;SDS011;66874;45.274;5.880;2023-08-01T05:02:36;16.33;;;5.00;;
77705;SDS011;66874;45.274;5.880;2023-08-01T05:05:01;22.40;;;5.72;;
77705;SDS011;66874;45.274;5.880;2023-08-01T05:07:27;24.90;;;5.88;;
77705;SDS011;66874;45.274;5.880;2023-08-01T05:09:52;21.20;;;5.18;;
77705;SDS011;66874;45.274;5.880;2023-08-01T05:12:17;6.10;;;2.42;;
77705;SDS011;66874;45.274;5.880;2023-08-01T05:14:43;10.23;;;3.22;;
77705;SDS011;66874;45.274;5.880;2023-08-01T05:17:08;4.97;;;2.53;;
77705;SDS011;66874;45.274;5.880;2023-08-01T05:19:34;8.55;;;3.15;;
77705;SDS011;66874;45.274;5.880;2023-08-01T05:21:59;4.32;;;2.42;;
77705;SDS011;66874;45.274;5.880;2023-08-01T05:24:26;4.18;;;2.47;;
77705;SDS011;66874;45.274;5.880;2023-08-01T05:26:51;5.43;;;2.72;;
77705;SDS011;66874;45.274;5.880;2023-08-01T05:29:16;4.97;;;3.08;;
77705;SDS011;66874;45.274;5.880;2023-08-01T05:31:42;5.18;;;2.90;;
77705;SDS011;66874;45.274;5.880;2023-08-01T05:34:07;5.35;;;2.95;;
77705;SDS011;66874;45.274;5.880;2023-08-01T05:36:32;4.25;;;2.83;;
77705;SDS011;66874;45.274;5.880;2023-08-01T05:38:58;5.15;;;3.42;;
77705;SDS011;66874;45.274;5.880;2023-08-01T05:41:23;7.65;;;3.28;;
77705;SDS011;66874;45.274;5.880;2023-08-01T05:43:49;5.60;;;3.17;;
77705;SDS011;66874;45.274;5.880;2023-08-01T05:46:15;7.05;;;3.63;;
77705;SDS011;66874;45.274;5.880;2023-08-01T05:48:40;5.45;;;3.33;;
77705;SDS011;66874;45.274;5.880;2023-08-01T05:51:06;6.03;;;3.20;;
77705;SDS011;66874;45.274;5.880;2023-08-01T05:53:32;4.95;;;2.97;;
77705;SDS011;66874;45.274;5.880;2023-08-01T05:55:57;7.82;;;2.85;;
77705;SDS011;66874;45.274;5.880;2023-08-01T05:58:23;6.97;;;3.00;;
77705;SDS011;66874;45.274;5.880;2023-08-01T06:00:48;4.68;;;2.78;;
77705;SDS011;66874;45.274;5.880;2023-08-01T06:03:14;10.32;;;3.03;;
77705;SDS011;66874;45.274;5.880;2023-08-01T06:05:39;11.85;;;3.60;;
77705;SDS011;66874;45.274;5.880;2023-08-01T06:08:08;7.38;;;3.38;;
77705;SDS011;66874;45.274;5.880;2023-08-01T06:10:34;4.57;;;2.80;;
77705;SDS011;66874;45.274;5.880;2023-08-01T06:13:00;3.53;;;2.70;;
77705;SDS011;66874;45.274;5.880;2023-08-01T06:15:26;4.53;;;2.65;;
77705;SDS011;66874;45.274;5.880;2023-08-01T06:17:51;6.93;;;3.00;;
77705;SDS011;66874;45.274;5.880;2023-08-01T06:20:16;3.88;;;2.55;;
77705;SDS011;66874;45.274;5.880;2023-08-01T06:22:42;4.97;;;3.05;;
77705;SDS011;66874;45.274;5.880;2023-08-01T06:25:08;4.43;;;2.70;;
77705;SDS011;66874;45.274;5.880;2023-08-01T06:27:34;7.38;;;2.70;;
77705;SDS011;66874;45.274;5.880;2023-08-01T06:29:59;10.32;;;2.72;;
77705;SDS011;66874;45.274;5.880;2023-08-01T06:32:25;4.90;;;3.20;;
77705;SDS011;66874;45.274;5.880;2023-08-01T06:34:50;5.45;;;2.95;;
77705;SDS011;66874;45.274;5.880;2023-08-01T06:37:16;4.22;;;3.25;;
77705;SDS011;66874;45.274;5.880;2023-08-01T06:39:41;4.55;;;2.65;;
77705;SDS011;66874;45.274;5.880;2023-08-01T06:42:06;8.93;;;3.55;;
77705;SDS011;66874;45.274;5.880;2023-08-01T06:44:32;6.63;;;2.50;;
77705;SDS011;66874;45.274;5.880;2023-08-01T06:46:57;6.07;;;2.80;;
77705;SDS011;66874;45.274;5.880;2023-08-01T06:49:23;4.97;;;2.67;;
77705;SDS011;66874;45.274;5.880;2023-08-01T06:51:48;4.82;;;2.90;;
77705;SDS011;66874;45.274;5.880;2023-08-01T06:54:13;6.03;;;2.92;;
77705;SDS011;66874;45.274;5.880;2023-08-01T06:56:39;5.55;;;3.08;;
77705;SDS011;66874;45.274;5.880;2023-08-01T06:59:04;7.22;;;2.53;;
77705;SDS011;66874;45.274;5.880;2023-08-01T07:01:29;7.72;;;3.13;;
77705;SDS011;66874;45.274;5.880;2023-08-01T07:03:55;13.68;;;4.55;;
77705;SDS011;66874;45.274;5.880;2023-08-01T07:06:22;9.93;;;4.00;;
77705;SDS011;66874;45.274;5.880;2023-08-01T07:08:48;8.52;;;3.38;;
77705;SDS011;66874;45.274;5.880;2023-08-01T07:11:14;9.70;;;3.28;;
77705;SDS011;66874;45.274;5.880;2023-08-01T07:13:39;5.80;;;2.92;;
77705;SDS011;66874;45.274;5.880;2023-08-01T07:16:05;10.32;;;3.33;;
77705;SDS011;66874;45.274;5.880;2023-08-01T07:18:30;9.02;;;3.38;;
77705;SDS011;66874;45.274;5.880;2023-08-01T07:21:02;8.52;;;3.70;;
77705;SDS011;66874;45.274;5.880;2023-08-01T07:23:28;9.00;;;3.47;;
77705;SDS011;66874;45.274;5.880;2023-08-01T07:25:54;12.32;;;3.40;;
77705;SDS011;66874;45.274;5.880;2023-08-01T07:28:19;9.63;;;3.90;;
77705;SDS011;66874;45.274;5.880;2023-08-01T07:30:45;8.68;;;3.35;;
77705;SDS011;66874;45.274;5.880;2023-08-01T07:33:10;7.30;;;3.20;;
77705;SDS011;66874;45.274;5.880;2023-08-01T07:35:36;5.72;;;3.33;;
77705;SDS011;66874;45.274;5.880;2023-08-01T07:38:01;5.40;;;3.28;;
77705;SDS011;66874;45.274;5.880;2023-08-01T07:40:26;9.75;;;4.05;;
77705;SDS011;66874;45.274;5.880;2023-08-01T07:42:52;7.63;;;3.53;;
77705;SDS011;66874;45.274;5.880;2023-08-01T07:45:17;7.60;;;3.80;;
77705;SDS011;66874;45.274;5.880;2023-08-01T07:47:44;6.25;;;3.25;;
77705;SDS011;66874;45.274;5.880;2023-08-01T07:50:09;6.82;;;3.22;;
77705;SDS011;66874;45.274;5.880;2023-08-01T07:52:35;7.28;;;3.38;;
77705;SDS011;66874;45.274;5.880;2023-08-01T07:55:01;7.15;;;3.05;;
77705;SDS011;66874;45.274;5.880;2023-08-01T07:57:26;11.45;;;4.28;;
77705;SDS011;66874;45.274;5.880;2023-08-01T07:59:52;8.65;;;3.58;;
77705;SDS011;66874;45.274;5.880;2023-08-01T08:02:18;8.27;;;3.45;;
77705;SDS011;66874;45.274;5.880;2023-08-01T08:04:43;6.57;;;3.17;;
77705;SDS011;66874;45.274;5.880;2023-08-01T08:07:08;7.18;;;3.17;;
77705;SDS011;66874;45.274;5.880;2023-08-01T08:09:34;9.88;;;3.45;;
77705;SDS011;66874;45.274;5.880;2023-08-01T08:11:59;6.30;;;3.22;;
77705;SDS011;66874;45.274;5.880;2023-08-01T08:14:25;6.38;;;3.25;;
77705;SDS011;66874;45.274;5.880;2023-08-01T08:16:50;7.80;;;3.33;;
77705;SDS011;66874;45.274;5.880;2023-08-01T08:19:16;5.15;;;2.80;;
77705;SDS011;66874;45.274;5.880;2023-08-01T08:21:41;5.38;;;2.85;;
77705;SDS011;66874;45.274;5.880;2023-08-01T08:24:06;7.45;;;3.05;;
77705;SDS011;66874;45.274;5.880;2023-08-01T08:26:32;6.72;;;3.00;;
77705;SDS011;66874;45.274;5.880;2023-08-01T08:29:02;5.20;;;3.47;;
77705;SDS011;66874;45.274;5.880;2023-08-01T08:31:27;5.82;;;2.90;;
77705;SDS011;66874;45.274;5.880;2023-08-01T08:33:53;4.50;;;2.97;;
77705;SDS011;66874;45.274;5.880;2023-08-01T08:36:18;6.10;;;2.75;;
77705;SDS011;66874;45.274;5.880;2023-08-01T08:38:44;4.43;;;2.75;;
77705;SDS011;66874;45.274;5.880;2023-08-01T08:41:17;10.35;;;3.80;;
77705;SDS011;66874;45.274;5.880;2023-08-01T08:43:46;8.23;;;3.17;;
77705;SDS011;66874;45.274;5.880;2023-08-01T08:46:14;5.47;;;3.70;;
77705;SDS011;66874;45.274;5.880;2023-08-01T08:48:41;9.57;;;4.05;;
77705;SDS011;66874;45.274;5.880;2023-08-01T08:51:07;15.90;;;3.85;;
77705;SDS011;66874;45.274;5.880;2023-08-01T08:53:35;8.15;;;4.60;;
77705;SDS011;66874;45.274;5.880;2023-08-01T08:56:01;7.73;;;3.30;;
77705;SDS011;66874;45.274;5.880;2023-08-01T08:58:30;5.03;;;3.33;;
77705;SDS011;66874;45.274;5.880;2023-08-01T09:00:56;9.02;;;3.33;;
77705;SDS011;66874;45.274;5.880;2023-08-01T09:03:25;6.68;;;3.63;;
77705;SDS011;66874;45.274;5.880;2023-08-01T09:05:52;9.73;;;4.25;;
77705;SDS011;66874;45.274;5.880;2023-08-01T09:08:24;12.95;;;3.40;;
77705;SDS011;66874;45.274;5.880;2023-08-01T09:10:53;12.98;;;3.90;;
77705;SDS011;66874;45.274;5.880;2023-08-01T09:13:18;6.25;;;3.30;;
77705;SDS011;66874;45.274;5.880;2023-08-01T09:15:44;7.95;;;3.28;;
77705;SDS011;66874;45.274;5.880;2023-08-01T09:18:11;7.80;;;3.20;;
77705;SDS011;66874;45.274;5.880;2023-08-01T09:20:44;9.85;;;3.63;;
77705;SDS011;66874;45.274;5.880;2023-08-01T09:23:11;6.95;;;3.00;;
77705;SDS011;66874;45.274;5.880;2023-08-01T09:25:36;7.00;;;3.13;;
77705;SDS011;66874;45.274;5.880;2023-08-01T09:28:02;7.18;;;3.42;;
77705;SDS011;66874;45.274;5.880;2023-08-01T09:30:27;8.23;;;2.75;;
77705;SDS011;66874;45.274;5.880;2023-08-01T09:32:53;7.53;;;2.92;;
77705;SDS011;66874;45.274;5.880;2023-08-01T09:35:19;7.80;;;3.28;;
77705;SDS011;66874;45.274;5.880;2023-08-01T09:37:46;8.70;;;3.10;;
77705;SDS011;66874;45.274;5.880;2023-08-01T09:40:14;9.00;;;3.45;;
77705;SDS011;66874;45.274;5.880;2023-08-01T09:42:40;5.85;;;2.80;;
77705;SDS011;66874;45.274;5.880;2023-08-01T09:45:11;4.80;;;2.95;;
77705;SDS011;66874;45.274;5.880;2023-08-01T09:47:40;5.43;;;2.75;;
77705;SDS011;66874;45.274;5.880;2023-08-01T09:50:06;9.02;;;3.25;;
77705;SDS011;66874;45.274;5.880;2023-08-01T09:52:32;9.40;;;3.60;;
77705;SDS011;66874;45.274;5.880;2023-08-01T09:54:58;8.00;;;3.95;;
77705;SDS011;66874;45.274;5.880;2023-08-01T09:57:23;9.80;;;4.20;;
77705;SDS011;66874;45.274;5.880;2023-08-01T09:59:54;7.93;;;3.47;;
77705;SDS011;66874;45.274;5.880;2023-08-01T10:02:21;9.35;;;3.30;;
77705;SDS011;66874;45.274;5.880;2023-08-01T10:04:49;7.43;;;3.83;;
77705;SDS011;66874;45.274;5.880;2023-08-01T10:07:23;11.48;;;3.88;;
77705;SDS011;66874;45.274;5.880;2023-08-01T10:09:51;7.82;;;3.33;;
77705;SDS011;66874;45.274;5.880;2023-08-01T10:12:22;7.03;;;4.35;;
77705;SDS011;66874;45.274;5.880;2023-08-01T10:14:53;5.03;;;3.50;;
77705;SDS011;66874;45.274;5.880;2023-08-01T10:17:21;7.40;;;3.90;;
77705;SDS011;66874;45.274;5.880;2023-08-01T10:19:49;8.55;;;4.53;;
77705;SDS011;66874;45.274;5.880;2023-08-01T10:22:15;6.73;;;3.57;;
77705;SDS011;66874;45.274;5.880;2023-08-01T10:27:10;7.80;;;3.72;;
77705;SDS011;66874;45.274;5.880;2023-08-01T10:29:39;7.22;;;4.00;;
77705;SDS011;66874;45.274;5.880;2023-08-01T10:32:06;6.30;;;4.32;;
77705;SDS011;66874;45.274;5.880;2023-08-01T10:34:32;7.50;;;3.08;;
77705;SDS011;66874;45.274;5.880;2023-08-01T10:36:58;6.30;;;3.72;;
77705;SDS011;66874;45.274;5.880;2023-08-01T10:39:24;8.30;;;3.75;;
77705;SDS011;66874;45.274;5.880;2023-08-01T10:41:58;5.80;;;3.15;;
77705;SDS011;66874;45.274;5.880;2023-08-01T10:44:25;8.73;;;3.53;;
77705;SDS011;66874;45.274;5.880;2023-08-01T10:49:18;5.22;;;2.65;;
77705;SDS011;66874;45.274;5.880;2023-08-01T10:51:44;9.43;;;3.20;;
77705;SDS011;66874;45.274;5.880;2023-08-01T10:56:46;7.18;;;3.15;;
77705;SDS011;66874;45.274;5.880;2023-08-01T10:59:13;11.20;;;3.67;;
77705;SDS011;66874;45.274;5.880;2023-08-01T11:01:49;5.18;;;3.05;;
77705;SDS011;66874;45.274;5.880;2023-08-01T11:04:18;6.82;;;3.20;;
77705;SDS011;66874;45.274;5.880;2023-08-01T11:09:23;4.03;;;2.95;;
77705;SDS011;66874;45.274;5.880;2023-08-01T11:11:55;6.45;;;3.50;;
77705;SDS011;66874;45.274;5.880;2023-08-01T11:14:22;6.03;;;3.20;;
77705;SDS011;66874;45.274;5.880;2023-08-01T11:16:49;4.88;;;3.00;;
77705;SDS011;66874;45.274;5.880;2023-08-01T11:19:25;6.57;;;3.40;;
77705;SDS011;66874;45.274;5.880;2023-08-01T11:21:52;10.25;;;3.90;;
77705;SDS011;66874;45.274;5.880;2023-08-01T11:24:21;4.95;;;3.33;;
77705;SDS011;66874;45.274;5.880;2023-08-01T11:26:47;6.60;;;3.60;;
77705;SDS011;66874;45.274;5.880;2023-08-01T11:29:14;7.03;;;3.90;;
77705;SDS011;66874;45.274;5.880;2023-08-01T11:31:40;6.30;;;3.35;;
77705;SDS011;66874;45.274;5.880;2023-08-01T11:34:17;6.85;;;3.35;;
77705;SDS011;66874;45.274;5.880;2023-08-01T11:36:43;7.32;;;3.53;;
77705;SDS011;66874;45.274;5.880;2023-08-01T11:39:10;6.05;;;3.40;;
77705;SDS011;66874;45.274;5.880;2023-08-01T11:41:37;10.38;;;3.90;;
77705;SDS011;66874;45.274;5.880;2023-08-01T11:44:04;4.22;;;3.08;;
77705;SDS011;66874;45.274;5.880;2023-08-01T11:46:31;6.68;;;3.20;;
77705;SDS011;66874;45.274;5.880;2023-08-01T11:51:24;6.87;;;3.73;;
77705;SDS011;66874;45.274;5.880;2023-08-01T11:53:59;4.70;;;3.38;;
77705;SDS011;66874;45.274;5.880;2023-08-01T11:56:28;7.97;;;3.42;;
77705;SDS011;66874;45.274;5.880;2023-08-01T11:58:55;5.80;;;3.50;;
77705;SDS011;66874;45.274;5.880;2023-08-01T12:01:20;6.97;;;3.13;;
77705;SDS011;66874;45.274;5.880;2023-08-01T12:03:51;5.75;;;3.42;;
77705;SDS011;66874;45.274;5.880;2023-08-01T12:06:18;4.88;;;3.13;;
77705;SDS011;66874;45.274;5.880;2023-08-01T12:08:47;5.82;;;2.50;;
77705;SDS011;66874;45.274;5.880;2023-08-01T12:11:26;4.88;;;2.88;;
77705;SDS011;66874;45.274;5.880;2023-08-01T12:14:05;5.05;;;3.05;;
77705;SDS011;66874;45.274;5.880;2023-08-01T12:16:34;7.03;;;3.10;;
77705;SDS011;66874;45.274;5.880;2023-08-01T12:18:59;6.68;;;3.10;;
77705;SDS011;66874;45.274;5.880;2023-08-01T12:21:25;5.43;;;2.92;;
77705;SDS011;66874;45.274;5.880;2023-08-01T12:23:50;4.35;;;2.88;;
77705;SDS011;66874;45.274;5.880;2023-08-01T12:26:16;6.50;;;2.88;;
77705;SDS011;66874;45.274;5.880;2023-08-01T12:28:41;6.40;;;2.88;;
77705;SDS011;66874;45.274;5.880;2023-08-01T12:31:06;3.78;;;2.67;;
77705;SDS011;66874;45.274;5.880;2023-08-01T12:33:32;5.45;;;2.53;;
77705;SDS011;66874;45.274;5.880;2023-08-01T12:35:58;3.38;;;2.47;;
77705;SDS011;66874;45.274;5.880;2023-08-01T12:38:24;4.65;;;2.67;;
77705;SDS011;66874;45.274;5.880;2023-08-01T12:40:49;5.13;;;2.55;;
77705;SDS011;66874;45.274;5.880;2023-08-01T12:43:15;4.47;;;2.42;;
77705;SDS011;66874;45.274;5.880;2023-08-01T12:45:41;4.53;;;2.30;;
77705;SDS011;66874;45.274;5.880;2023-08-01T12:48:07;3.10;;;2.30;;
77705;SDS011;66874;45.274;5.880;2023-08-01T12:50:32;5.75;;;2.80;;
77705;SDS011;66874;45.274;5.880;2023-08-01T12:52:57;4.90;;;2.90;;
77705;SDS011;66874;45.274;5.880;2023-08-01T12:55:23;3.90;;;2.55;;
77705;SDS011;66874;45.274;5.880;2023-08-01T12:57:48;3.58;;;2.47;;
77705;SDS011;66874;45.274;5.880;2023-08-01T13:00:14;3.80;;;2.55;;
77705;SDS011;66874;45.274;5.880;2023-08-01T13:02:39;4.55;;;2.70;;
77705;SDS011;66874;45.274;5.880;2023-08-01T13:05:05;3.53;;;2.50;;
77705;SDS011;66874;45.274;5.880;2023-08-01T13:07:30;5.60;;;3.17;;
77705;SDS011;66874;45.274;5.880;2023-08-01T13:09:59;3.10;;;2.60;;
77705;SDS011;66874;45.274;5.880;2023-08-01T13:12:25;4.38;;;2.70;;
77705;SDS011;66874;45.274;5.880;2023-08-01T13:14:51;3.08;;;2.78;;
77705;SDS011;66874;45.274;5.880;2023-08-01T13:17:16;3.45;;;2.08;;
77705;SDS011;66874;45.274;5.880;2023-08-01T13:19:42;5.93;;;1.90;;
77705;SDS011;66874;45.274;5.880;2023-08-01T13:22:07;1.83;;;1.53;;
77705;SDS011;66874;45.274;5.880;2023-08-01T13:24:33;1.47;;;1.37;;
77705;SDS011;66874;45.274;5.880;2023-08-01T13:26:58;1.67;;;1.10;;
77705;SDS011;66874;45.274;5.880;2023-08-01T13:29:23;1.70;;;1.03;;
77705;SDS011;66874;45.274;5.880;2023-08-01T13:31:49;2.73;;;1.77;;
77705;SDS011;66874;45.274;5.880;2023-08-01T13:34:14;2.43;;;1.73;;
77705;SDS011;66874;45.274;5.880;2023-08-01T13:36:40;5.63;;;2.20;;
77705;SDS011;66874;45.274;5.880;2023-08-01T13:39:05;4.53;;;2.20;;
77705;SDS011;66874;45.274;5.880;2023-08-01T13:41:31;2.30;;;1.73;;
77705;SDS011;66874;45.274;5.880;2023-08-01T13:43:58;3.63;;;2.63;;
77705;SDS011;66874;45.274;5.880;2023-08-01T13:46:23;3.97;;;2.67;;
77705;SDS011;66874;45.274;5.880;2023-08-01T13:48:49;3.77;;;2.43;;
77705;SDS011;66874;45.274;5.880;2023-08-01T13:51:14;3.83;;;2.33;;
77705;SDS011;66874;45.274;5.880;2023-08-01T13:53:39;3.03;;;2.20;;
77705;SDS011;66874;45.274;5.880;2023-08-01T13:56:10;3.40;;;2.80;;
77705;SDS011;66874;45.274;5.880;2023-08-01T13:58:39;3.70;;;2.50;;
77705;SDS011;66874;45.274;5.880;2023-08-01T14:01:05;4.35;;;2.47;;
77705;SDS011;66874;45.274;5.880;2023-08-01T14:03:35;3.50;;;2.05;;
77705;SDS011;66874;45.274;5.880;2023-08-01T14:06:08;3.20;;;1.80;;
77705;SDS011;66874;45.274;5.880;2023-08-01T14:08:36;2.10;;;1.90;;
77705;SDS011;66874;45.274;5.880;2023-08-01T14:11:02;2.80;;;1.93;;
77705;SDS011;66874;45.274;5.880;2023-08-01T14:15:54;5.93;;;1.83;;
77705;SDS011;66874;45.274;5.880;2023-08-01T14:18:19;2.40;;;1.67;;
77705;SDS011;66874;45.274;5.880;2023-08-01T14:20:44;1.60;;;1.50;;
77705;SDS011;66874;45.274;5.880;2023-08-01T14:23:10;3.00;;;2.10;;
77705;SDS011;66874;45.274;5.880;2023-08-01T14:25:35;2.93;;;1.87;;
77705;SDS011;66874;45.274;5.880;2023-08-01T14:28:01;3.63;;;2.00;;
77705;SDS011;66874;45.274;5.880;2023-08-01T14:30:26;2.30;;;1.60;;
77705;SDS011;66874;45.274;5.880;2023-08-01T14:32:58;3.80;;;1.57;;
77705;SDS011;66874;45.274;5.880;2023-08-01T14:35:27;2.35;;;1.60;;
77705;SDS011;66874;45.274;5.880;2023-08-01T14:37:53;3.53;;;1.57;;
77705;SDS011;66874;45.274;5.880;2023-08-01T14:40:20;1.83;;;1.73;;
77705;SDS011;66874;45.274;5.880;2023-08-01T14:42:49;2.03;;;1.70;;
77705;SDS011;66874;45.274;5.880;2023-08-01T14:45:14;3.43;;;1.93;;
77705;SDS011;66874;45.274;5.880;2023-08-01T14:47:40;2.43;;;1.87;;
77705;SDS011;66874;45.274;5.880;2023-08-01T14:50:07;4.72;;;1.80;;
77705;SDS011;66874;45.274;5.880;2023-08-01T14:52:34;1.83;;;1.55;;
77705;SDS011;66874;45.274;5.880;2023-08-01T14:54:59;4.10;;;1.60;;
77705;SDS011;66874;45.274;5.880;2023-08-01T14:57:24;2.40;;;1.47;;